Latest Coastal Weather Observations for Bellambi

IDN60701

Issued at 2:35 pm EST Wednesday 3 September 2014 (issued every 10 minutes, with the page automatically refreshed every 10 minutes)

About coastal observations | Map of coastal stations | Coastal observations for NSW | Marine services | Other Formats
Station Details ID: 068228 Name: BELLAMBI AWS Lat: -34.37 Lon: 150.93 Height: 10.0 m
Data from the previous 72 hours. | See also: Recent months at Bellambi
Date/Time
EST
Temp

°C
Wind Pressure Rain
since 9am
mm
Weather Cloud Vis
km
Sea
Height
m
Swell
Dir
 
Speed
knots
Gust
knots
hPa Trend Height
m
Period
s
Dir
03/02:32pm 14.4 SSW 20 31 - - 0.2 - Partly cloudy - - - - -
03/02:30pm 14.6 SSW 20 29 - - 0.2 - Partly cloudy - - - - -
03/02:00pm 13.9 SSW 27 37 - - 0.2 - Partly cloudy - - - - -
03/01:30pm 14.1 SSW 25 35 - - 0.2 - Partly cloudy - - - - -
03/01:19pm 13.8 SSW 21 31 - - 0.2 - Partly cloudy - - - - -
03/01:00pm 13.5 SSW 27 36 - - 0.2 - Partly cloudy - - - - -
03/12:30pm 14.1 SSW 26 38 - - 0.2 - Partly cloudy - - - - -
03/12:20pm 14.0 SSW 25 36 - - 0.2 - Partly cloudy - - - - -
03/12:00pm 12.6 SSW 27 35 - - 0.2 Rain Cloudy - - - - -
03/11:39am 14.0 SSW 25 40 - - 0.0 - Partly cloudy - - - - -
03/11:30am 14.3 SSW 24 33 - - 0.0 - Partly cloudy - - - - -
03/11:04am 14.1 SSW 26 36 - - 0.0 - Partly cloudy - - - - -
03/11:00am 14.3 SSW 28 36 - - 0.0 - Partly cloudy - - - - -
03/10:30am 13.4 SSW 28 39 - - 0.0 - Partly cloudy - - - - -
03/10:00am 13.5 SSW 30 44 - - 0.0 - - - - - - -
03/09:51am 13.4 SSW 27 44 - - 0.0 - Partly cloudy - - - - -
03/09:30am 13.1 SSW 24 33 - - 0.0 - Partly cloudy - - - - -
03/09:02am 12.9 SSW 24 34 - - 0.0 - Partly cloudy - - - - -
03/09:00am 12.7 SSW 25 34 - - 14.2 - Mostly clear - - - - -
03/08:30am 12.0 SSW 22 33 - - 14.2 - Partly cloudy - - - - -
03/08:00am 11.8 SSW 24 37 - - 14.2 - Partly cloudy - - - - -
03/07:34am 11.6 SSW 24 38 - - 14.2 - Partly cloudy - - - - -
03/07:30am 11.6 SSW 23 31 - - 14.2 - Partly cloudy - - - - -
03/07:00am 11.6 SSW 24 34 - - 14.2 - Partly cloudy - - - - -
03/06:30am 11.0 SW 19 29 - - 14.2 - Partly cloudy - - - - -
03/06:01am 11.8 SSW 26 37 - - 14.2 - Partly cloudy - - - - -
03/06:00am 11.7 SSW 26 34 - - 14.2 - Cloudy - - - - -
03/05:39am 11.6 SSW 24 34 - - 14.2 - Partly cloudy - - - - -
03/05:30am 11.7 SSW 25 34 - - 14.2 - Partly cloudy - - - - -
03/05:00am 11.7 SSW 27 40 - - 14.2 - Partly cloudy - - - - -
03/04:30am 11.8 SSW 28 40 - - 14.2 - Partly cloudy - - - - -
03/04:00am 11.4 SSW 25 36 - - 14.2 - Partly cloudy - - - - -
03/03:30am 11.5 SW 24 39 - - 14.2 - - - - - - -
03/03:00am 11.6 SSW 27 40 - - 14.2 - Partly cloudy - - - - -
03/02:30am 11.4 SSW 27 38 - - 14.2 - Partly cloudy - - - - -
03/02:27am 11.7 SSW 28 38 - - 14.2 - Partly cloudy - - - - -
03/02:22am 11.6 SSW 32 38 - - 14.2 - Partly cloudy - - - - -
03/02:08am 10.9 SW 21 31 - - 14.2 - - - - - - -
03/02:00am 10.9 SW 22 31 - - 14.2 - Partly cloudy - - - - -
03/01:44am 11.1 SW 29 39 - - 14.2 - Partly cloudy - - - - -
03/01:40am 11.3 SSW 31 39 - - 14.2 - Partly cloudy - - - - -
03/01:30am 10.6 SW 21 32 - - 14.2 - Partly cloudy - - - - -
03/01:10am 10.3 SW 20 34 - - 14.0 - Partly cloudy - - - - -
03/01:00am 10.3 SSW 22 29 - - 13.8 - Partly cloudy - - - - -
03/12:30am 10.0 SW 21 33 - - 13.4 - Partly cloudy - - - - -
03/12:05am 9.5 SW 17 29 - - 13.4 - Partly cloudy - - - - -
03/12:00am 9.4 SW 16 22 - - 13.2 Recent precip. Cloudy - - - - -
 
Date/Time
EST
Temp

°C
Wind Pressure Rain
since 9am
mm
Weather Cloud Vis
km
Sea
Height
m
Swell
Dir
 
Speed
knots
Gust
knots
hPa Trend Height
m
Period
s
Dir
02/11:31pm 9.1 SW 18 28 - - 13.2 - Partly cloudy - - - - -
02/11:30pm 8.9 SW 17 23 - - 13.2 - Partly cloudy - - - - -
02/11:00pm 8.9 SW 19 30 - - 12.6 - Partly cloudy - - - - -
02/10:56pm 8.7 SW 16 28 - - 12.6 - Partly cloudy - - - - -
02/10:30pm 8.6 SW 18 27 - - 11.4 - Partly cloudy - - - - -
02/10:12pm 8.6 SW 15 27 - - 10.4 - Cloudy - - - - -
02/10:00pm 8.6 SW 16 25 - - 9.2 - Partly cloudy - - - - -
02/09:32pm 8.6 SW 15 26 - - 6.8 - Partly cloudy - - - - -
02/09:30pm 8.5 SW 15 21 - - 6.8 - Partly cloudy - - - - -
02/09:11pm 8.4 SW 15 27 - - 6.2 - Partly cloudy - - - - -
02/09:00pm 8.4 SW 16 24 - - 5.8 Rain Cloudy - - - - -
02/08:42pm 8.8 SW 16 26 - - 5.4 - Partly cloudy - - - - -
02/08:30pm 8.8 SW 16 21 - - 5.2 - Partly cloudy - - - - -
02/08:02pm 9.4 SW 16 29 - - 4.6 - Partly cloudy - - - - -
02/08:00pm 9.5 SW 16 22 - - 4.6 - Partly cloudy - - - - -
02/07:41pm 9.7 SW 15 25 - - 4.6 - Partly cloudy - - - - -
02/07:30pm 9.6 SW 15 21 - - 4.4 - Partly cloudy - - - - -
02/07:00pm 10.4 SW 11 16 - - 4.2 - Partly cloudy - - - - -
02/06:30pm 10.7 SW 15 22 - - 4.0 - Partly cloudy - - - - -
02/06:26pm 10.8 SW 17 22 - - 4.0 - Partly cloudy - - - - -
02/06:00pm 10.9 WSW 6 9 - - 3.4 Rain Partly cloudy - - - - -
02/05:30pm 10.9 WSW 8 10 - - 3.0 - Partly cloudy - - - - -
02/05:00pm 11.1 WSW 7 10 - - 2.4 - Partly cloudy - - - - -
02/04:55pm 11.1 WSW 7 11 - - 2.4 - Partly cloudy - - - - -
02/04:44pm 11.2 SW 10 17 - - 2.0 - Partly cloudy - - - - -
02/04:30pm 12.4 WSW 13 19 - - 1.0 - Partly cloudy - - - - -
02/04:00pm 14.7 SW 7 10 - - 0.6 - Partly cloudy - - - - -
02/03:30pm 14.6 WSW 6 8 - - 0.6 - - - - - - -
02/03:00pm 14.0 SW 10 14 - - 0.6 - - - - - - -
02/02:30pm 14.0 SW 10 14 - - 0.6 - - - - - - -
02/02:00pm 13.4 SW 13 17 - - 0.6 - - - - - - -
02/01:30pm 13.0 SW 11 15 - - 0.6 - Partly cloudy - - - - -
02/01:17pm 13.0 SSW 13 18 - - 0.6 - Partly cloudy - - - - -
02/01:00pm 12.3 SSW 12 18 - - 0.6 - Partly cloudy - - - - -
02/12:59pm 12.2 SSW 12 18 - - 0.6 - Partly cloudy - - - - -
02/12:30pm 13.5 S 17 21 - - 0.0 - Partly cloudy - - - - -
02/12:00pm 13.8 S 19 23 - - 0.0 - Partly cloudy - - - - -
02/11:35am 13.9 S 21 25 - - 0.0 - Partly cloudy - - - - -
02/11:30am 15.3 SW 9 15 - - 0.0 - Partly cloudy - - - - -
02/11:00am 15.7 WSW 9 13 - - 0.0 - Partly cloudy - - - - -
02/10:30am 16.7 WSW 9 15 - - 0.0 - - - - - - -
02/10:00am 16.3 SW 9 14 - - 0.0 - - - - - - -
02/09:30am 15.6 SSW 7 11 - - 0.0 - - - - - - -
02/09:00am 14.7 SW 9 12 - - 0.0 - - - - - - -
02/08:30am 14.6 WSW 7 13 - - 0.0 - - - - - - -
02/08:00am 14.5 NW 13 18 - - 0.0 - Partly cloudy - - - - -
02/07:30am 15.1 WNW 9 14 - - 0.0 - - - - - - -
02/07:00am 15.1 W 11 17 - - 0.0 - - - - - - -
02/06:30am 15.1 WNW 7 10 - - 0.0 - - - - - - -
02/06:00am 15.1 W 6 10 - - 0.0 - - - - - - -
02/05:30am 15.2 W 6 10 - - 0.0 - - - - - - -
02/05:00am 15.5 W 7 11 - - 0.0 - - - - - - -
02/04:30am 15.4 SW 7 12 - - 0.0 - - - - - - -
02/04:00am 15.7 SW 9 14 - - 0.0 - - - - - - -
02/03:30am 16.4 WSW 7 12 - - 0.0 - - - - - - -
02/03:00am 17.0 W 9 15 - - 0.0 - - - - - - -
02/02:30am 17.3 WNW 11 15 - - 0.0 - - - - - - -
02/02:00am 17.9 NW 6 9 - - 0.0 - - - - - - -
02/01:30am 17.8 NE 12 16 - - 0.0 - - - - - - -
02/01:00am 17.8 NNE 13 16 - - 0.0 - - - - - - -
02/12:30am 18.0 NNE 11 14 - - 0.0 - - - - - - -
02/12:00am 17.9 NNE 10 12 - - 0.0 - - - - - - -
 
Date/Time
EST
Temp

°C
Wind Pressure Rain
since 9am
mm
Weather Cloud Vis
km
Sea
Height
m
Swell
Dir
 
Speed
knots
Gust
knots
hPa Trend Height
m
Period
s
Dir
01/11:30pm 17.9 NNE 7 9 - - 0.0 - - - - - - -
01/11:00pm 18.0 N 7 10 - - 0.0 - - - - - - -
01/10:30pm 17.5 NNW 10 12 - - 0.0 - - - - - - -
01/10:00pm 16.5 NNW 7 8 - - 0.0 - - - - - - -
01/09:30pm 16.7 NNW 6 7 - - 0.0 - - - - - - -
01/09:00pm 16.2 WNW 5 6 - - 0.0 - - - - - - -
01/08:30pm 16.8 NW 8 11 - - 0.0 - - - - - - -
01/08:00pm 15.9 NW 7 9 - - 0.0 - - - - - - -
01/07:30pm 16.5 WNW 4 6 - - 0.0 - - - - - - -
01/07:00pm 17.1 N 8 10 - - 0.0 - - - - - - -
01/06:30pm 17.2 N 7 9 - - 0.0 - - - - - - -
01/06:00pm 17.2 NNE 11 13 - - 0.0 - - - - - - -
01/05:30pm 17.3 NNE 12 14 - - 0.0 - - - - - - -
01/05:00pm 17.7 N 13 15 - - 0.0 - - - - - - -
01/04:30pm 18.0 NNE 16 20 - - 0.0 - - - - - - -
01/04:00pm 18.4 NNE 14 17 - - 0.0 - - - - - - -
01/03:30pm 18.1 NNE 14 17 - - 0.0 - - - - - - -
01/03:00pm 18.6 NE 13 15 - - 0.0 - - - - - - -
01/02:30pm 18.9 NE 14 16 - - 0.0 - - - - - - -
01/02:00pm 19.4 NE 12 16 - - 0.0 - - - - - - -
01/01:30pm 22.4 NNW 11 16 - - 0.0 - - - - - - -
01/01:00pm 21.2 NNE 9 14 - - 0.0 - - - - - - -
01/12:30pm 20.7 NNE 9 12 - - 0.0 - - - - - - -
01/12:00pm 20.1 NNE 9 12 - - 0.0 - - - - - - -
01/11:30am 19.5 NE 9 12 - - 0.0 - - - - - - -
01/11:00am 19.3 NE 8 12 - - 0.0 - - - - - - -
01/10:30am 18.8 NE 9 12 - - 0.0 - - - - - - -
01/10:00am 18.3 N 6 9 - - 0.0 - - - - - - -
01/09:30am 17.8 N 7 10 - - 0.0 - - - - - - -
01/09:00am 16.7 NNW 7 9 - - 0.0 - - - - - - -
01/08:30am 15.8 NW 8 10 - - 0.0 - - - - - - -
01/08:00am 14.4 WNW 13 15 - - 0.0 - - - - - - -
01/07:30am 13.7 WNW 11 14 - - 0.0 - - - - - - -
01/07:00am 13.0 N 5 7 - - 0.0 - - - - - - -
01/06:30am 11.6 WNW 2 5 - - 0.0 - - - - - - -
01/06:00am 12.0 NNW 4 7 - - 0.0 - - - - - - -
01/05:30am 11.4 W 1 4 - - 0.0 - - - - - - -
01/05:00am 12.1 NW 6 8 - - 0.0 - - - - - - -
01/04:30am 12.3 NW 7 8 - - 0.0 - - - - - - -
01/04:00am 12.2 NW 7 10 - - 0.0 - - - - - - -
01/03:30am 12.6 NW 8 10 - - 0.0 - - - - - - -
01/03:00am 13.5 NNW 6 8 - - 0.0 - - - - - - -
01/02:30am 13.5 NNW 10 11 - - 0.0 - - - - - - -
01/02:00am 13.7 NW 9 11 - - 0.0 - - - - - - -
01/01:30am 13.5 WNW 7 9 - - 0.0 - - - - - - -
01/01:00am 13.3 WNW 6 9 - - 0.0 - - - - - - -
01/12:30am 13.6 WNW 6 9 - - 0.0 - - - - - - -
01/12:00am 13.9 NW 7 10 - - 0.0 - - - - - - -
 
Date/Time
EST
Temp

°C
Wind Pressure Rain
since 9am
mm
Weather Cloud Vis
km
Sea
Height
m
Swell
Dir
 
Speed
knots
Gust
knots
hPa Trend Height
m
Period
s
Dir
31/11:30pm 14.2 NNW 7 9 - - 0.0 - - - - - - -
31/11:00pm 13.6 NW 7 8 - - 0.0 - - - - - - -
31/10:30pm 13.1 WNW 5 7 - - 0.0 - - - - - - -
31/10:00pm 12.8 WNW 5 6 - - 0.0 - - - - - - -
31/09:30pm 12.8 NW 4 5 - - 0.0 - - - - - - -
31/09:00pm 13.3 WNW 5 6 - - 0.0 - - - - - - -
31/08:30pm 13.4 NW 6 7 - - 0.0 - - - - - - -
31/08:00pm 13.6 W 5 6 - - 0.0 - - - - - - -
31/07:30pm 13.7 WNW 4 5 - - 0.0 - - - - - - -
31/07:00pm 14.0 W 2 5 - - 0.0 - - - - - - -
31/06:30pm 14.6 WNW 3 3 - - 0.0 - - - - - - -
31/06:00pm 15.5 N 3 4 - - 0.0 - - - - - - -
31/05:30pm 15.9 NE 5 6 - - 0.0 - - - - - - -
31/05:00pm 16.6 ENE 6 7 - - 0.0 - - - - - - -
31/04:30pm 17.1 ENE 6 7 - - 0.0 - - - - - - -
31/04:00pm 17.5 NE 4 5 - - 0.0 - - - - - - -
31/03:30pm 17.9 ENE 5 5 - - 0.0 - - - - - - -
31/03:00pm 17.7 E 4 5 - - 0.0 - - - - - - -

Other Formats:

Comma delimited format used in spreadsheet applications
http://www.bom.gov.au/fwo/IDN60701/IDN60701.94749.axf

JavaScript Object Notation format (JSON) in row-major order
http://www.bom.gov.au/fwo/IDN60701/IDN60701.94749.json